createdAt,value
2017-09-05T00:00:33.263Z,88.76
2017-09-05T00:03:00.714Z,88.34
2017-09-05T00:05:28.191Z,88.83
2017-09-05T00:08:13.316Z,90.33
2017-09-05T00:10:40.783Z,90.37
2017-09-05T00:13:08.650Z,91.34
2017-09-05T00:15:38.655Z,91.39
2017-09-05T00:18:16.959Z,90.20
2017-09-05T00:20:46.835Z,90.77
2017-09-05T00:23:14.289Z,90.41
2017-09-05T00:25:41.753Z,89.43
2017-09-05T00:28:09.209Z,89.67
2017-09-05T00:30:36.683Z,89.91
2017-09-05T00:33:04.131Z,89.56
2017-09-05T00:35:31.669Z,89.81
2017-09-05T00:37:59.213Z,89.06
2017-09-05T00:40:26.674Z,88.52
2017-09-05T00:42:54.130Z,88.87
2017-09-05T00:45:21.619Z,89.99
2017-09-05T00:47:49.042Z,89.71
2017-09-05T00:50:16.549Z,90.33
2017-09-05T00:52:44.014Z,91.30
2017-09-05T00:55:11.531Z,92.19
2017-09-05T00:57:39.030Z,92.15
2017-09-05T01:00:06.537Z,91.75
2017-09-05T01:02:34.078Z,91.71
2017-09-05T01:05:01.552Z,92.10
2017-09-05T01:07:29.098Z,91.66
2017-09-05T01:09:56.567Z,91.03
2017-09-05T01:12:24.127Z,90.59
2017-09-05T01:14:51.579Z,90.37
2017-09-05T01:17:19.129Z,90.00
2017-09-05T01:19:46.621Z,88.48
2017-09-05T01:22:14.077Z,89.67
2017-09-05T01:24:41.511Z,89.57
2017-09-05T01:27:09.062Z,88.78
2017-09-05T01:29:36.493Z,88.34
2017-09-05T01:32:04.017Z,88.46
2017-09-05T01:34:31.492Z,88.78
2017-09-05T01:36:58.985Z,89.30
2017-09-05T01:39:26.430Z,89.02
2017-09-05T01:41:54.098Z,89.32
2017-09-05T01:44:21.570Z,89.43
2017-09-05T01:46:49.114Z,89.27
2017-09-05T01:49:16.558Z,89.29
2017-09-05T01:51:44.025Z,89.56
2017-09-05T01:54:11.493Z,89.58
2017-09-05T01:56:38.989Z,89.58
2017-09-05T01:59:06.518Z,89.69
2017-09-05T02:01:34.063Z,89.21
2017-09-05T02:04:01.512Z,88.52
2017-09-05T02:06:28.987Z,89.28
2017-09-05T02:08:56.527Z,88.42
2017-09-05T02:11:24.017Z,89.05
2017-09-05T02:13:51.462Z,89.09
2017-09-05T02:16:18.950Z,89.44
2017-09-05T02:18:46.385Z,89.44
2017-09-05T02:21:13.881Z,89.21
2017-09-05T02:23:41.348Z,89.22
2017-09-05T02:26:08.794Z,89.20
2017-09-05T02:28:36.256Z,90.28
2017-09-05T02:31:03.811Z,89.93
2017-09-05T02:33:31.290Z,90.25
2017-09-05T02:35:58.758Z,89.40
2017-09-05T02:38:26.333Z,88.97
2017-09-05T02:40:53.874Z,89.77
2017-09-05T02:43:21.433Z,89.74
2017-09-05T02:45:48.877Z,89.95
2017-09-05T02:48:16.352Z,89.25
2017-09-05T02:50:43.814Z,90.10
2017-09-05T02:53:11.377Z,89.96
2017-09-05T02:55:38.844Z,88.61
2017-09-05T02:58:06.377Z,89.29
2017-09-05T03:00:33.813Z,89.29
2017-09-05T03:03:01.330Z,89.93
2017-09-05T03:05:28.769Z,89.45
2017-09-05T03:07:56.221Z,89.87
2017-09-05T03:10:23.747Z,89.89
2017-09-05T03:12:51.213Z,89.97
2017-09-05T03:15:18.653Z,90.16
2017-09-05T03:17:46.121Z,90.12
2017-09-05T03:20:13.557Z,90.05
2017-09-05T03:22:41.004Z,90.42
2017-09-05T03:25:08.585Z,89.97
2017-09-05T03:27:36.024Z,89.00
2017-09-05T03:30:03.527Z,88.88
2017-09-05T03:32:30.962Z,89.84
2017-09-05T03:34:58.445Z,89.64
2017-09-05T03:37:25.890Z,89.18
2017-09-05T03:39:53.447Z,90.08
2017-09-05T03:42:20.905Z,90.20
2017-09-05T03:44:48.368Z,89.19
2017-09-05T03:47:15.801Z,89.71
2017-09-05T03:49:43.481Z,89.33
2017-09-05T03:52:10.963Z,89.63
2017-09-05T03:54:38.443Z,89.23
2017-09-05T03:57:05.887Z,89.21
2017-09-05T03:59:33.407Z,89.25
2017-09-05T04:02:00.900Z,89.33
2017-09-05T04:04:28.395Z,89.34
2017-09-05T04:06:55.882Z,89.29
2017-09-05T04:09:23.338Z,89.39
2017-09-05T04:11:50.789Z,89.78
2017-09-05T04:14:18.269Z,90.23
2017-09-05T04:16:45.806Z,91.11
2017-09-05T04:19:13.291Z,90.39
2017-09-05T04:21:40.747Z,90.12
2017-09-05T04:24:08.309Z,90.15
2017-09-05T04:26:35.775Z,89.04
2017-09-05T04:29:03.253Z,88.83
2017-09-05T04:31:30.690Z,89.01
2017-09-05T04:33:58.161Z,88.99
2017-09-05T04:36:25.598Z,89.08
2017-09-05T04:38:53.135Z,89.12
2017-09-05T04:41:20.738Z,89.03
2017-09-05T04:43:48.251Z,89.10
2017-09-05T04:46:15.812Z,89.17
2017-09-05T04:48:43.353Z,89.23
2017-09-05T04:51:10.823Z,89.72
2017-09-05T04:53:38.264Z,89.63
2017-09-05T04:56:05.738Z,90.10
2017-09-05T04:58:33.181Z,89.60
2017-09-05T05:01:00.648Z,88.92
2017-09-05T05:03:28.090Z,89.38
2017-09-05T05:05:55.851Z,89.70
2017-09-05T05:08:23.314Z,89.23
2017-09-05T05:10:50.797Z,90.76
2017-09-05T05:13:18.274Z,90.93
2017-09-05T05:15:45.737Z,91.45
2017-09-05T05:18:13.182Z,91.42
2017-09-05T05:20:40.661Z,91.46
2017-09-05T05:23:08.100Z,90.93
2017-09-05T05:25:35.609Z,90.95
2017-09-05T05:28:03.053Z,91.48
2017-09-05T05:30:30.535Z,91.68
2017-09-05T05:32:57.991Z,91.06
2017-09-05T05:35:25.548Z,90.00
2017-09-05T05:37:53.213Z,91.22
2017-09-05T05:40:20.757Z,91.74
2017-09-05T05:42:48.194Z,91.45
2017-09-05T05:45:15.682Z,91.53
2017-09-05T05:47:43.148Z,91.39
2017-09-05T05:50:10.615Z,91.76
2017-09-05T05:52:38.067Z,91.53
2017-09-05T05:55:05.519Z,91.33
2017-09-05T05:57:32.985Z,90.86
2017-09-05T06:00:00.433Z,90.34
2017-09-05T06:02:27.899Z,90.23
2017-09-05T06:04:55.426Z,89.98
2017-09-05T06:07:22.904Z,89.83
2017-09-05T06:09:50.358Z,89.93
2017-09-05T06:12:17.902Z,89.97
2017-09-05T06:14:45.459Z,90.35
2017-09-05T06:17:12.939Z,90.10
2017-09-05T06:19:40.395Z,90.13
2017-09-05T06:22:07.951Z,89.69
2017-09-05T06:24:35.405Z,90.12
2017-09-05T06:27:02.949Z,89.78
2017-09-05T06:29:30.413Z,89.09
2017-09-05T06:31:57.877Z,89.46
2017-09-05T06:34:25.339Z,89.13
2017-09-05T06:36:52.809Z,88.68
2017-09-05T06:39:20.253Z,88.00
2017-09-05T06:41:47.726Z,88.00
2017-09-05T06:44:15.252Z,87.22
2017-09-05T06:46:42.793Z,86.16
2017-09-05T06:49:10.258Z,86.42
2017-09-05T06:51:37.775Z,86.28
2017-09-05T06:54:05.227Z,85.21
2017-09-05T06:56:32.664Z,85.57
2017-09-05T06:59:00.199Z,86.36
2017-09-05T07:01:27.754Z,86.47
2017-09-05T07:03:55.309Z,86.72
2017-09-05T07:06:22.805Z,86.24
2017-09-05T07:08:50.330Z,86.47
2017-09-05T07:11:17.793Z,84.72
2017-09-05T07:13:45.344Z,83.64
2017-09-05T07:16:12.809Z,83.18
2017-09-05T07:18:40.308Z,85.25
2017-09-05T07:21:07.778Z,83.76
2017-09-05T07:23:35.261Z,84.29
2017-09-05T07:26:02.715Z,82.31
2017-09-05T07:28:30.233Z,83.47
2017-09-05T07:30:57.685Z,83.51
2017-09-05T07:33:25.173Z,82.56
2017-09-05T07:35:52.653Z,83.43
2017-09-05T07:38:20.121Z,82.85
2017-09-05T07:40:47.601Z,82.78
2017-09-05T07:43:15.148Z,83.13
2017-09-05T07:45:42.673Z,84.04
2017-09-05T07:48:10.230Z,83.61
2017-09-05T07:50:37.698Z,81.63
2017-09-05T07:53:05.182Z,80.62
2017-09-05T07:55:32.638Z,81.11
2017-09-05T07:58:00.231Z,79.84
2017-09-05T08:00:27.728Z,79.17
2017-09-05T08:02:55.302Z,81.59
2017-09-05T08:05:22.768Z,81.24
2017-09-05T08:07:50.213Z,81.63
2017-09-05T08:10:18.099Z,80.26
2017-09-05T08:12:45.629Z,81.40
2017-09-05T08:15:13.124Z,81.86
2017-09-05T08:17:40.573Z,79.24
2017-09-05T08:20:08.132Z,80.27
2017-09-05T08:22:35.604Z,79.97
2017-09-05T08:25:03.112Z,79.86
2017-09-05T08:27:30.677Z,78.43
2017-09-05T08:29:58.221Z,78.23
2017-09-05T08:32:25.663Z,78.93
2017-09-05T08:34:53.129Z,78.42
2017-09-05T08:37:20.583Z,77.43
2017-09-05T08:39:48.164Z,76.71
2017-09-05T08:42:15.722Z,77.11
2017-09-05T08:44:43.284Z,77.97
2017-09-05T08:47:10.727Z,78.23
2017-09-05T08:49:38.281Z,77.73
2017-09-05T08:52:05.737Z,76.33
2017-09-05T08:54:33.193Z,75.04
2017-09-05T08:57:00.717Z,74.41
2017-09-05T08:59:28.189Z,72.25
2017-09-05T09:01:55.716Z,72.97
2017-09-05T09:04:23.166Z,73.40
2017-09-05T09:06:50.736Z,72.32
2017-09-05T09:09:18.233Z,70.81
2017-09-05T09:11:45.697Z,71.06
2017-09-05T09:14:13.168Z,73.09
2017-09-05T09:16:40.665Z,72.74
2017-09-05T09:19:08.127Z,72.60
2017-09-05T09:21:35.593Z,71.15
2017-09-05T09:24:03.047Z,71.81
2017-09-05T09:26:30.528Z,70.43
2017-09-05T09:28:57.997Z,70.66
2017-09-05T09:31:25.459Z,70.78
2017-09-05T09:33:53.020Z,69.18
2017-09-05T09:36:20.610Z,68.76
2017-09-05T09:38:48.129Z,68.62
2017-09-05T09:41:15.585Z,69.23
2017-09-05T09:43:43.062Z,67.98
2017-09-05T09:46:10.593Z,67.29
2017-09-05T09:48:38.038Z,68.54
2017-09-05T09:51:05.499Z,67.75
2017-09-05T09:53:32.983Z,66.54
2017-09-05T09:56:00.430Z,65.61
2017-09-05T09:58:27.928Z,66.10
2017-09-05T10:00:55.434Z,65.75
2017-09-05T10:03:23.017Z,65.52
2017-09-05T10:05:50.571Z,67.70
2017-09-05T10:08:18.131Z,66.19
2017-09-05T10:10:45.669Z,66.38
2017-09-05T10:13:13.230Z,64.20
2017-09-05T10:15:40.662Z,65.77
2017-09-05T10:18:08.131Z,64.60
2017-09-05T10:20:35.626Z,65.42
2017-09-05T10:23:03.127Z,63.31
2017-09-05T10:25:30.684Z,62.33
2017-09-05T10:27:58.167Z,62.93
2017-09-05T10:30:25.629Z,63.60
2017-09-05T10:32:53.208Z,63.28
2017-09-05T10:35:20.672Z,63.03
2017-09-05T10:37:48.169Z,62.87
2017-09-05T10:40:15.651Z,63.84
2017-09-05T10:42:43.102Z,64.87
2017-09-05T10:45:10.551Z,66.07
2017-09-05T10:47:38.005Z,63.22
2017-09-05T10:50:05.535Z,64.40
2017-09-05T10:52:32.995Z,64.77
2017-09-05T10:55:00.476Z,62.31
2017-09-05T10:57:27.923Z,63.33
2017-09-05T10:59:55.419Z,63.75
2017-09-05T11:02:22.917Z,62.99
2017-09-05T11:04:50.395Z,62.32
2017-09-05T11:07:17.876Z,63.14
2017-09-05T11:09:45.352Z,61.88
2017-09-05T11:12:12.806Z,63.19
2017-09-05T11:14:40.267Z,60.50
2017-09-05T11:17:07.728Z,59.84
2017-09-05T11:19:35.335Z,60.03
2017-09-05T11:22:02.774Z,60.96
2017-09-05T11:24:30.282Z,61.81
2017-09-05T11:26:57.752Z,61.04
2017-09-05T11:29:25.302Z,59.25
2017-09-05T11:31:53.338Z,59.63
2017-09-05T11:34:20.804Z,60.16
2017-09-05T11:36:48.275Z,60.44
2017-09-05T11:39:15.806Z,60.22
2017-09-05T11:41:43.237Z,60.61
2017-09-05T11:44:10.787Z,59.91
2017-09-05T11:46:38.333Z,60.41
2017-09-05T11:49:05.791Z,59.13
2017-09-05T11:51:33.333Z,58.09
2017-09-05T11:54:00.922Z,58.27
2017-09-05T11:56:28.468Z,58.55
2017-09-05T11:58:56.011Z,58.21
2017-09-05T12:01:23.489Z,59.24
2017-09-05T12:03:50.940Z,58.23
2017-09-05T12:06:18.405Z,58.34
2017-09-05T12:08:45.866Z,57.58
2017-09-05T12:11:13.347Z,56.25
2017-09-05T12:13:41.973Z,57.28
2017-09-05T12:16:09.436Z,57.50
2017-09-05T12:18:36.893Z,57.83
2017-09-05T12:21:04.381Z,57.43
2017-09-05T12:23:31.841Z,56.81
2017-09-05T12:25:59.302Z,57.56
2017-09-05T12:28:26.777Z,55.61
2017-09-05T12:30:54.289Z,55.29
2017-09-05T12:33:21.755Z,55.28
2017-09-05T12:35:49.253Z,55.85
2017-09-05T12:38:16.752Z,55.71
2017-09-05T12:40:44.211Z,54.78
2017-09-05T12:43:11.657Z,54.87
2017-09-05T12:45:39.118Z,54.30
2017-09-05T12:48:06.564Z,55.64
2017-09-05T12:50:34.125Z,55.12
2017-09-05T12:53:01.589Z,57.46
2017-09-05T12:55:29.045Z,55.54
2017-09-05T12:57:56.516Z,57.20
2017-09-05T13:00:24.056Z,57.71
2017-09-05T13:02:51.534Z,57.21
2017-09-05T13:05:18.981Z,56.68
2017-09-05T13:07:46.477Z,57.83
2017-09-05T13:10:14.052Z,58.19
2017-09-05T13:12:41.509Z,58.41
2017-09-05T13:15:09.019Z,58.71
2017-09-05T13:17:36.532Z,58.06
2017-09-05T13:20:03.966Z,58.43
2017-09-05T13:22:31.478Z,58.10
2017-09-05T13:24:58.948Z,58.52
2017-09-05T13:27:26.517Z,57.68
2017-09-05T13:29:54.057Z,58.23
2017-09-05T13:32:21.626Z,57.68
2017-09-05T13:34:49.065Z,57.49
2017-09-05T13:37:16.513Z,57.92
2017-09-05T13:39:43.987Z,57.90
2017-09-05T13:42:11.545Z,58.46
2017-09-05T13:44:39.014Z,58.22
2017-09-05T13:47:06.485Z,58.16
2017-09-05T13:49:33.931Z,58.42
2017-09-05T13:52:01.461Z,57.85
2017-09-05T13:54:28.898Z,58.04
2017-09-05T13:56:56.368Z,59.49
2017-09-05T13:59:23.846Z,59.38
2017-09-05T14:01:51.290Z,59.90
2017-09-05T14:04:18.852Z,59.49
2017-09-05T14:06:46.306Z,59.46
2017-09-05T14:09:13.793Z,59.81
2017-09-05T14:11:41.230Z,60.56
2017-09-05T14:14:08.777Z,58.90
2017-09-05T14:16:36.258Z,57.61
2017-09-05T14:19:03.730Z,58.04
2017-09-05T14:21:31.161Z,57.95
2017-09-05T14:23:58.630Z,57.26
2017-09-05T14:26:26.061Z,56.10
2017-09-05T14:28:53.569Z,55.30
2017-09-05T14:31:21.078Z,54.78
2017-09-05T14:33:48.544Z,55.12
2017-09-05T14:36:16.002Z,56.18
2017-09-05T14:38:43.479Z,54.05
2017-09-05T14:41:10.919Z,54.02
2017-09-05T14:43:38.410Z,54.09
2017-09-05T14:46:05.909Z,53.85
2017-09-05T14:48:33.473Z,53.26
2017-09-05T14:51:00.927Z,52.95
2017-09-05T14:53:28.403Z,51.85
2017-09-05T14:55:55.848Z,50.43
2017-09-05T14:58:23.602Z,50.10
2017-09-05T15:00:51.099Z,49.69
2017-09-05T15:03:18.644Z,50.19
2017-09-05T15:05:46.166Z,50.63
2017-09-05T15:08:13.673Z,48.21
2017-09-05T15:10:41.134Z,49.83
2017-09-05T15:13:08.674Z,51.27
2017-09-05T15:15:36.145Z,50.38
2017-09-05T15:18:03.593Z,50.63
2017-09-05T15:20:31.077Z,52.18
2017-09-05T15:22:58.566Z,51.58
2017-09-05T15:25:26.056Z,52.08
2017-09-05T15:27:53.560Z,52.62
2017-09-05T15:30:21.050Z,52.44
2017-09-05T15:32:48.505Z,53.38
2017-09-05T15:35:16.056Z,52.93
2017-09-05T15:37:43.536Z,53.78
2017-09-05T15:40:11.484Z,54.01
2017-09-05T15:42:39.062Z,54.86
2017-09-05T15:45:06.520Z,55.64
2017-09-05T15:47:33.971Z,54.58
2017-09-05T15:50:01.455Z,55.03
2017-09-05T15:52:28.999Z,55.28
2017-09-05T15:54:56.500Z,55.51
2017-09-05T15:57:23.964Z,55.83
2017-09-05T15:59:51.432Z,56.49
2017-09-05T16:02:18.905Z,56.31
2017-09-05T16:04:46.476Z,56.50
2017-09-05T16:07:13.965Z,56.62
2017-09-05T16:09:41.431Z,57.56
2017-09-05T16:12:08.885Z,57.45
2017-09-05T16:14:36.398Z,56.92
2017-09-05T16:17:03.895Z,57.52
2017-09-05T16:19:31.417Z,57.74
2017-09-05T16:21:58.873Z,57.95
2017-09-05T16:24:26.329Z,57.37
2017-09-05T16:26:53.811Z,57.52
2017-09-05T16:29:21.985Z,57.66
2017-09-05T16:31:49.496Z,57.44
2017-09-05T16:34:16.968Z,57.73
2017-09-05T16:36:44.522Z,57.86
2017-09-05T16:39:12.048Z,58.40
2017-09-05T16:41:39.510Z,57.62
2017-09-05T16:44:07.228Z,58.09
2017-09-05T16:46:34.826Z,58.40
2017-09-05T16:49:02.282Z,58.02
2017-09-05T16:51:29.768Z,58.36
2017-09-05T16:53:57.211Z,58.32
2017-09-05T16:56:24.967Z,59.53
2017-09-05T16:58:54.415Z,59.30
2017-09-05T17:01:21.923Z,59.06
2017-09-05T17:03:49.375Z,59.31
2017-09-05T17:06:16.841Z,60.12
2017-09-05T17:08:44.313Z,59.33
2017-09-05T17:11:11.795Z,59.72
2017-09-05T17:13:39.314Z,60.57
2017-09-05T17:16:06.775Z,61.68
2017-09-05T17:18:34.262Z,59.97
2017-09-05T17:21:01.705Z,60.26
2017-09-05T17:23:29.162Z,60.53
2017-09-05T17:25:56.599Z,61.15
2017-09-05T17:28:24.076Z,60.18
2017-09-05T17:30:51.548Z,60.59
2017-09-05T17:33:19.017Z,60.47
2017-09-05T17:35:46.496Z,60.44
2017-09-05T17:38:14.005Z,61.16
2017-09-05T17:40:41.452Z,61.13
2017-09-05T17:43:08.963Z,61.44
2017-09-05T17:45:36.434Z,61.35
2017-09-05T17:48:03.889Z,61.95
2017-09-05T17:50:31.402Z,62.16
2017-09-05T17:52:58.917Z,62.61
2017-09-05T17:55:26.403Z,62.81
2017-09-05T17:57:53.901Z,62.70
2017-09-05T18:00:21.365Z,62.76
2017-09-05T18:02:48.843Z,63.42
2017-09-05T18:05:16.299Z,63.66
2017-09-05T18:07:44.027Z,65.59
2017-09-05T18:10:11.475Z,67.39
2017-09-05T18:12:39.921Z,68.20
2017-09-05T18:15:07.353Z,67.92
2017-09-05T18:17:34.845Z,68.47
2017-09-05T18:20:02.297Z,68.83
2017-09-05T18:22:29.738Z,68.97
2017-09-05T18:24:57.189Z,68.75
2017-09-05T18:27:24.630Z,68.83
2017-09-05T18:29:53.038Z,68.77
2017-09-05T18:32:20.499Z,68.90
2017-09-05T18:34:47.959Z,69.72
2017-09-05T18:37:15.431Z,69.62
2017-09-05T18:39:42.973Z,70.35
2017-09-05T18:42:10.447Z,70.41
2017-09-05T18:44:37.941Z,71.14
2017-09-05T18:47:05.652Z,71.32
2017-09-05T18:49:33.105Z,71.86
2017-09-05T18:52:00.590Z,72.01
2017-09-05T18:54:28.091Z,71.92
2017-09-05T18:56:55.591Z,71.77
2017-09-05T18:59:23.144Z,71.73
2017-09-05T19:01:50.597Z,71.33
2017-09-05T19:04:18.062Z,71.56
2017-09-05T19:06:45.516Z,72.15
2017-09-05T19:09:12.976Z,71.96
2017-09-05T19:11:40.495Z,71.33
2017-09-05T19:14:08.636Z,71.84
2017-09-05T19:16:36.183Z,71.34
2017-09-05T19:19:03.787Z,71.67
2017-09-05T19:21:31.269Z,70.82
2017-09-05T19:23:58.793Z,71.54
2017-09-05T19:26:26.240Z,72.25
2017-09-05T19:28:53.707Z,73.01
2017-09-05T19:31:21.304Z,73.34
2017-09-05T19:33:48.799Z,74.43
2017-09-05T19:36:16.318Z,74.97
2017-09-05T19:38:43.765Z,75.37
2017-09-05T19:41:11.298Z,75.80
2017-09-05T19:43:38.765Z,76.74
2017-09-05T19:46:06.246Z,76.73
2017-09-05T19:48:33.703Z,77.17
2017-09-05T19:51:01.162Z,77.40
2017-09-05T19:53:29.239Z,78.25
2017-09-05T19:55:56.795Z,77.48
2017-09-05T19:58:24.232Z,78.46
2017-09-05T20:00:51.690Z,78.35
2017-09-05T20:03:19.138Z,78.78
2017-09-05T20:05:47.008Z,78.86
2017-09-05T20:08:14.497Z,79.05
2017-09-05T20:10:41.950Z,79.62
2017-09-05T20:13:09.505Z,79.31
2017-09-05T20:15:36.987Z,79.23
2017-09-05T20:18:04.453Z,79.67
2017-09-05T20:20:31.918Z,79.66
2017-09-05T20:22:59.438Z,79.59
2017-09-05T20:25:26.992Z,79.78
2017-09-05T20:27:54.537Z,80.74
2017-09-05T20:30:22.301Z,81.52
2017-09-05T20:32:49.738Z,81.52
2017-09-05T20:35:17.216Z,81.50
2017-09-05T20:37:44.672Z,81.60
2017-09-05T20:40:12.229Z,81.22
2017-09-05T20:42:39.694Z,81.54
2017-09-05T20:45:07.168Z,81.23
2017-09-05T20:47:34.606Z,81.57
2017-09-05T20:50:02.173Z,81.56
2017-09-05T20:52:29.609Z,81.54
2017-09-05T20:54:57.244Z,83.06
2017-09-05T20:57:24.729Z,83.29
2017-09-05T20:59:52.204Z,83.22
2017-09-05T21:02:19.722Z,82.75
2017-09-05T21:04:47.209Z,82.76
2017-09-05T21:07:14.665Z,82.44
2017-09-05T21:09:42.101Z,82.36
2017-09-05T21:12:09.574Z,82.51
2017-09-05T21:14:37.010Z,82.47
2017-09-05T21:17:04.489Z,82.54
2017-09-05T21:19:31.926Z,82.21
2017-09-05T21:21:59.556Z,82.26
2017-09-05T21:24:26.987Z,82.61
2017-09-05T21:26:54.449Z,82.78
2017-09-05T21:29:21.978Z,82.48
2017-09-05T21:31:49.583Z,82.97
2017-09-05T21:34:17.294Z,83.23
2017-09-05T21:36:44.758Z,83.01
2017-09-05T21:39:12.208Z,82.72
2017-09-05T21:41:39.665Z,82.73
2017-09-05T21:44:07.137Z,82.88
2017-09-05T21:46:34.705Z,82.45
2017-09-05T21:49:02.262Z,82.40
2017-09-05T21:51:29.814Z,82.29
2017-09-05T21:53:57.246Z,82.79
2017-09-05T21:56:24.728Z,82.95
2017-09-05T21:58:52.236Z,82.48
2017-09-05T22:01:19.869Z,82.90
2017-09-05T22:03:47.329Z,83.67
2017-09-05T22:06:14.781Z,83.84
2017-09-05T22:11:21.246Z,83.23
2017-09-05T22:13:54.391Z,83.39
2017-09-05T22:16:27.545Z,82.64
2017-09-05T22:19:00.595Z,82.98
2017-09-05T22:21:28.064Z,83.01
2017-09-05T22:23:55.497Z,82.90
2017-09-05T22:26:28.695Z,82.85
2017-09-05T22:29:01.854Z,83.12
2017-09-05T22:31:29.317Z,83.03
2017-09-05T22:33:56.806Z,82.73
2017-09-05T22:36:24.268Z,82.54
2017-09-05T22:38:51.729Z,82.37
2017-09-05T22:41:19.285Z,82.97
2017-09-05T22:43:46.829Z,83.00
2017-09-05T22:46:14.293Z,84.12
2017-09-05T22:48:41.746Z,83.29
2017-09-05T22:51:09.211Z,83.50
2017-09-05T22:53:36.798Z,83.36
2017-09-05T22:56:04.230Z,82.98
2017-09-05T22:58:31.707Z,83.31
2017-09-05T23:00:59.231Z,83.48
2017-09-05T23:03:26.702Z,84.00
2017-09-05T23:05:54.269Z,84.74
2017-09-05T23:08:21.722Z,85.11
2017-09-05T23:10:49.159Z,85.05
2017-09-05T23:13:16.632Z,85.83
2017-09-05T23:15:44.190Z,85.95
2017-09-05T23:18:12.966Z,86.14
2017-09-05T23:20:40.420Z,85.50
2017-09-05T23:23:07.943Z,85.48
2017-09-05T23:25:35.409Z,84.89
2017-09-05T23:28:03.508Z,84.59
2017-09-05T23:30:31.006Z,84.32
2017-09-05T23:32:58.530Z,84.08
2017-09-05T23:35:25.974Z,83.44
2017-09-05T23:37:53.429Z,83.62
2017-09-05T23:40:20.866Z,83.39
2017-09-05T23:42:48.370Z,83.45
2017-09-05T23:45:15.839Z,83.37
2017-09-05T23:47:43.304Z,83.33
2017-09-05T23:50:10.749Z,81.83
2017-09-05T23:52:38.302Z,81.34
2017-09-05T23:55:05.834Z,80.69
2017-09-05T23:57:33.286Z,81.76
